createdAt,value
2022-12-26T00:01:12.734Z,5.93
2022-12-26T00:03:39.559Z,5.50
2022-12-26T00:06:13.157Z,5.18
2022-12-26T00:08:39.600Z,5.93
2022-12-26T00:11:06.223Z,4.88
2022-12-26T00:13:37.232Z,7.28
2022-12-26T00:16:08.733Z,7.13
2022-12-26T00:18:35.411Z,5.45
2022-12-26T00:21:02.091Z,5.60
2022-12-26T00:23:28.576Z,7.38
2022-12-26T00:25:55.021Z,8.52
2022-12-26T00:28:21.395Z,6.90
2022-12-26T00:30:47.730Z,5.90
2022-12-26T00:33:14.056Z,5.82
2022-12-26T00:35:40.415Z,6.13
2022-12-26T00:38:07.607Z,6.40
2022-12-26T00:40:34.077Z,7.32
2022-12-26T00:43:00.486Z,6.10
2022-12-26T00:45:26.789Z,7.68
2022-12-26T00:47:53.267Z,8.40
2022-12-26T00:50:20.056Z,8.13
2022-12-26T00:52:46.427Z,7.72
2022-12-26T00:55:12.767Z,6.90
2022-12-26T00:57:39.169Z,7.78
2022-12-26T01:00:06.510Z,6.57
2022-12-26T01:02:33.109Z,8.15
2022-12-26T01:04:59.706Z,12.68
2022-12-26T01:07:26.109Z,13.00
2022-12-26T01:09:52.438Z,10.38
2022-12-26T01:12:18.957Z,13.90
2022-12-26T01:14:45.532Z,11.75
2022-12-26T01:17:12.140Z,11.40
2022-12-26T01:19:38.577Z,12.10
2022-12-26T01:22:04.994Z,15.90
2022-12-26T01:24:31.683Z,13.68
2022-12-26T01:26:58.037Z,20.55
2022-12-26T01:29:24.497Z,17.83
2022-12-26T01:31:50.937Z,19.88
2022-12-26T01:34:17.465Z,19.52
2022-12-26T01:36:43.836Z,21.40
2022-12-26T01:39:10.268Z,22.95
2022-12-26T01:41:38.074Z,22.50
2022-12-26T01:44:07.908Z,22.88
2022-12-26T01:46:37.448Z,22.17
2022-12-26T01:49:13.940Z,19.52
2022-12-26T01:51:44.857Z,19.75
2022-12-26T01:57:04.719Z,19.75
2022-12-26T01:59:32.929Z,19.38
2022-12-26T02:02:00.835Z,20.70
2022-12-26T02:04:39.719Z,14.88
2022-12-26T02:07:06.406Z,13.30
2022-12-26T02:09:33.781Z,12.98
2022-12-26T02:12:35.861Z,11.07
2022-12-26T02:14:57.387Z,11.93
2022-12-26T02:17:25.819Z,13.25
2022-12-26T02:19:58.167Z,13.10
2022-12-26T02:22:46.335Z,12.75
2022-12-26T02:25:32.745Z,11.40
2022-12-26T02:28:12.966Z,11.18
2022-12-26T02:31:09.030Z,8.95
2022-12-26T02:34:09.440Z,10.98
2022-12-26T02:37:00.367Z,9.30
2022-12-26T02:39:43.638Z,10.32
2022-12-26T02:42:22.633Z,9.48
2022-12-26T02:45:03.445Z,10.73
2022-12-26T02:47:44.636Z,12.73
2022-12-26T02:50:23.993Z,8.25
2022-12-26T02:53:17.071Z,10.75
2022-12-26T02:55:47.050Z,12.10
2022-12-26T02:58:21.191Z,10.70
2022-12-26T03:00:52.547Z,11.02
2022-12-26T03:03:22.445Z,8.05
2022-12-26T03:05:58.537Z,9.50
2022-12-26T03:08:32.133Z,9.85
2022-12-26T03:10:58.865Z,8.38
2022-12-26T03:13:31.819Z,13.38
2022-12-26T03:16:07.031Z,10.93
2022-12-26T03:18:58.890Z,8.95
2022-12-26T03:21:27.747Z,12.43
2022-12-26T03:23:56.634Z,10.80
2022-12-26T03:26:31.146Z,8.55
2022-12-26T03:28:57.604Z,13.15
2022-12-26T03:31:24.047Z,10.00
2022-12-26T03:33:50.460Z,10.52
2022-12-26T03:36:40.797Z,11.43
2022-12-26T03:39:24.039Z,9.93
2022-12-26T03:42:09.780Z,12.48
2022-12-26T03:44:58.479Z,14.45
2022-12-26T03:47:33.192Z,12.38
2022-12-26T03:50:26.051Z,7.80
2022-12-26T03:53:08.320Z,9.60
2022-12-26T03:55:45.202Z,8.80
2022-12-26T03:58:27.156Z,7.88
2022-12-26T04:00:56.539Z,14.48
2022-12-26T04:03:25.749Z,12.05
2022-12-26T04:05:53.679Z,13.05
2022-12-26T04:08:26.280Z,14.15
2022-12-26T04:10:55.894Z,13.10
2022-12-26T04:13:37.129Z,11.02
2022-12-26T04:16:14.480Z,11.88
2022-12-26T04:19:01.167Z,12.13
2022-12-26T04:21:34.997Z,10.48
2022-12-26T04:24:09.803Z,11.45
2022-12-26T04:26:46.265Z,12.93
2022-12-26T04:29:12.734Z,12.40
2022-12-26T04:31:55.271Z,12.90
2022-12-26T04:34:34.064Z,10.57
2022-12-26T04:37:05.904Z,17.83
2022-12-26T04:39:35.024Z,17.38
2022-12-26T04:42:02.173Z,21.30
2022-12-26T04:44:30.298Z,22.38
2022-12-26T04:46:57.189Z,17.63
2022-12-26T04:49:23.880Z,12.20
2022-12-26T04:51:50.426Z,13.38
2022-12-26T04:54:17.153Z,11.02
2022-12-26T04:56:43.666Z,10.90
2022-12-26T04:59:10.507Z,14.90
2022-12-26T05:01:37.068Z,15.30
2022-12-26T05:04:03.842Z,14.40
2022-12-26T05:06:30.279Z,11.85
2022-12-26T05:08:56.622Z,12.90
2022-12-26T05:11:24.061Z,12.15
2022-12-26T05:13:55.958Z,11.70
2022-12-26T05:16:23.948Z,16.35
2022-12-26T05:18:50.695Z,14.25
2022-12-26T05:21:18.646Z,12.05
2022-12-26T05:23:45.190Z,10.02
2022-12-26T05:26:17.130Z,13.43
2022-12-26T05:28:44.012Z,9.82
2022-12-26T05:31:15.018Z,10.88
2022-12-26T05:33:41.945Z,8.80
2022-12-26T05:36:09.731Z,10.35
2022-12-26T05:38:37.083Z,11.80
2022-12-26T05:41:04.111Z,9.68
2022-12-26T05:43:30.638Z,13.98
2022-12-26T05:45:57.179Z,9.35
2022-12-26T05:48:23.678Z,9.27
2022-12-26T05:50:51.388Z,8.43
2022-12-26T05:53:17.783Z,8.95
2022-12-26T05:55:44.363Z,9.50
2022-12-26T05:58:10.736Z,16.60
2022-12-26T06:00:37.428Z,10.50
2022-12-26T06:03:04.018Z,15.18
2022-12-26T06:05:30.443Z,11.82
2022-12-26T06:07:57.007Z,13.70
2022-12-26T06:10:23.371Z,10.18
2022-12-26T06:12:49.938Z,9.65
2022-12-26T06:15:16.744Z,10.93
2022-12-26T06:17:43.105Z,13.93
2022-12-26T06:20:09.726Z,12.40
2022-12-26T06:22:36.632Z,12.23
2022-12-26T06:25:03.034Z,12.55
2022-12-26T06:27:29.606Z,10.38
2022-12-26T06:29:56.325Z,13.35
2022-12-26T06:32:22.823Z,12.35
2022-12-26T06:34:49.410Z,10.05
2022-12-26T06:37:16.010Z,13.43
2022-12-26T06:39:42.609Z,10.00
2022-12-26T06:42:09.039Z,11.13
2022-12-26T06:44:35.563Z,9.50
2022-12-26T06:47:02.012Z,11.23
2022-12-26T06:49:32.724Z,7.95
2022-12-26T06:51:59.687Z,11.23
2022-12-26T06:54:26.205Z,10.95
2022-12-26T06:56:52.860Z,9.93
2022-12-26T06:59:19.316Z,8.90
2022-12-26T07:01:45.843Z,14.30
2022-12-26T07:04:13.054Z,11.43
2022-12-26T07:06:40.385Z,9.40
2022-12-26T07:09:15.997Z,8.88
2022-12-26T07:11:46.712Z,8.07
2022-12-26T07:14:13.864Z,9.80
2022-12-26T07:16:42.636Z,7.60
2022-12-26T07:19:11.410Z,8.15
2022-12-26T07:21:41.038Z,9.68
2022-12-26T07:24:15.746Z,6.97
2022-12-26T07:26:42.758Z,10.70
2022-12-26T07:29:10.379Z,10.95
2022-12-26T07:31:36.903Z,10.32
2022-12-26T07:34:03.700Z,7.43
2022-12-26T07:36:30.006Z,9.02
2022-12-26T07:38:56.501Z,10.80
2022-12-26T07:41:23.435Z,10.45
2022-12-26T07:43:49.853Z,7.93
2022-12-26T07:46:16.424Z,7.80
2022-12-26T07:48:42.980Z,9.43
2022-12-26T07:51:09.640Z,8.30
2022-12-26T07:53:36.097Z,7.38
2022-12-26T07:56:02.594Z,8.25
2022-12-26T07:58:28.963Z,7.88
2022-12-26T08:00:55.731Z,8.80
2022-12-26T08:03:23.084Z,8.25
2022-12-26T08:05:50.368Z,11.45
2022-12-26T08:08:17.144Z,12.23
2022-12-26T08:10:43.670Z,9.43
2022-12-26T08:13:10.173Z,12.07
2022-12-26T08:15:39.932Z,10.57
2022-12-26T08:18:07.147Z,9.40
2022-12-26T08:20:34.004Z,10.77
2022-12-26T08:23:00.668Z,10.23
2022-12-26T08:25:27.353Z,9.77
2022-12-26T08:27:53.954Z,10.07
2022-12-26T08:30:20.289Z,10.07
2022-12-26T08:32:46.796Z,10.85
2022-12-26T08:35:13.262Z,9.35
2022-12-26T08:37:39.794Z,11.30
2022-12-26T08:40:06.567Z,11.85
2022-12-26T08:42:34.641Z,13.00
2022-12-26T08:45:06.902Z,15.98
2022-12-26T08:47:33.425Z,10.90
2022-12-26T08:49:59.867Z,13.90
2022-12-26T08:52:26.296Z,10.70
2022-12-26T08:54:52.718Z,10.80
2022-12-26T08:57:19.062Z,10.88
2022-12-26T08:59:45.609Z,15.57
2022-12-26T09:02:12.489Z,13.75
2022-12-26T09:04:39.088Z,10.93
2022-12-26T09:07:08.261Z,15.95
2022-12-26T09:09:34.972Z,15.23
2022-12-26T09:12:01.644Z,16.90
2022-12-26T09:14:27.987Z,12.43
2022-12-26T09:16:54.553Z,16.10
2022-12-26T09:19:21.666Z,16.40
2022-12-26T09:21:51.414Z,15.45
2022-12-26T09:24:18.212Z,12.73
2022-12-26T09:26:45.213Z,18.05
2022-12-26T09:29:12.240Z,15.25
2022-12-26T09:31:39.095Z,12.35
2022-12-26T09:34:06.532Z,13.45
2022-12-26T09:36:35.938Z,14.57
2022-12-26T09:39:02.374Z,15.90
2022-12-26T09:42:00.149Z,12.32
2022-12-26T09:44:48.521Z,14.05
2022-12-26T09:47:17.978Z,12.57
2022-12-26T09:50:02.635Z,11.07
2022-12-26T09:52:52.417Z,12.15
2022-12-26T09:55:29.363Z,14.30
2022-12-26T09:58:01.359Z,12.38
2022-12-26T10:00:38.498Z,18.33
2022-12-26T10:03:05.275Z,15.05
2022-12-26T10:05:41.130Z,12.43
2022-12-26T10:08:50.002Z,14.77
2022-12-26T10:11:46.451Z,13.45
2022-12-26T10:14:30.510Z,13.13
2022-12-26T10:17:05.526Z,15.30
2022-12-26T10:19:42.707Z,13.23
2022-12-26T10:22:27.353Z,12.75
2022-12-26T10:24:59.637Z,12.93
2022-12-26T10:27:28.258Z,16.38
2022-12-26T10:30:05.497Z,16.42
2022-12-26T10:32:39.814Z,17.23
2022-12-26T10:35:27.355Z,11.38
2022-12-26T10:37:57.039Z,15.25
2022-12-26T10:40:34.022Z,17.38
2022-12-26T10:43:20.553Z,16.05
2022-12-26T10:46:16.500Z,15.57
2022-12-26T10:48:43.061Z,17.27
2022-12-26T10:51:09.711Z,15.13
2022-12-26T10:53:41.661Z,17.02
2022-12-26T10:56:11.956Z,11.43
2022-12-26T10:58:41.391Z,15.65
2022-12-26T11:01:29.435Z,17.85
2022-12-26T11:03:58.277Z,14.68
2022-12-26T11:06:28.874Z,20.40
2022-12-26T11:08:55.856Z,13.88
2022-12-26T11:11:28.824Z,13.82
2022-12-26T11:14:02.057Z,20.73
2022-12-26T11:16:40.035Z,20.60
2022-12-26T11:19:06.576Z,23.08
2022-12-26T11:21:33.470Z,23.45
2022-12-26T11:24:08.980Z,25.27
2022-12-26T11:26:36.558Z,18.77
2022-12-26T11:29:07.533Z,14.88
2022-12-26T11:31:34.145Z,20.92
2022-12-26T11:34:01.250Z,20.85
2022-12-26T11:36:30.021Z,20.52
2022-12-26T11:39:00.456Z,16.45
2022-12-26T11:41:27.398Z,14.15
2022-12-26T11:43:55.752Z,14.45
2022-12-26T11:46:32.923Z,16.63
2022-12-26T11:48:59.660Z,17.77
2022-12-26T11:51:40.264Z,18.13
2022-12-26T11:54:23.597Z,19.80
2022-12-26T11:57:01.144Z,16.52
2022-12-26T11:59:27.889Z,15.95
2022-12-26T12:02:31.942Z,15.27
2022-12-26T12:05:07.121Z,16.77
2022-12-26T12:07:58.388Z,16.27
2022-12-26T12:11:09.912Z,17.17
2022-12-26T12:13:56.229Z,13.75
2022-12-26T12:16:28.944Z,14.88
2022-12-26T12:19:03.558Z,12.82
2022-12-26T12:21:45.094Z,17.55
2022-12-26T12:24:36.701Z,14.00
2022-12-26T12:27:11.851Z,14.18
2022-12-26T12:30:12.375Z,13.90
2022-12-26T12:33:02.559Z,15.65
2022-12-26T12:35:50.217Z,12.68
2022-12-26T12:38:28.668Z,14.27
2022-12-26T12:41:13.130Z,15.57
2022-12-26T12:43:48.084Z,10.45
2022-12-26T12:46:22.980Z,10.77
2022-12-26T12:49:15.932Z,10.45
2022-12-26T12:51:58.241Z,10.65
2022-12-26T12:54:53.919Z,8.63
2022-12-26T12:57:52.527Z,6.38
2022-12-26T13:00:22.360Z,6.35
2022-12-26T13:03:00.138Z,6.28
2022-12-26T13:06:07.833Z,4.43
2022-12-26T13:08:39.114Z,3.63
2022-12-26T13:11:25.264Z,4.18
2022-12-26T13:14:01.380Z,3.10
2022-12-26T13:16:32.548Z,4.63
2022-12-26T13:19:04.190Z,4.28
2022-12-26T13:21:35.643Z,5.80
2022-12-26T13:24:11.906Z,3.45
2022-12-26T13:27:00.017Z,2.17
2022-12-26T13:29:41.371Z,2.58
2022-12-26T13:32:34.195Z,4.00
2022-12-26T13:35:02.465Z,4.03
2022-12-26T13:37:37.815Z,3.58
2022-12-26T13:40:27.344Z,4.00
2022-12-26T13:43:03.114Z,3.10
2022-12-26T13:45:35.509Z,2.97
2022-12-26T13:48:27.919Z,1.40
2022-12-26T13:50:56.948Z,2.05
2022-12-26T13:53:26.275Z,2.05
2022-12-26T13:55:55.432Z,5.20
2022-12-26T13:58:40.852Z,2.05
2022-12-26T14:01:28.880Z,2.88
2022-12-26T14:04:26.277Z,2.75
2022-12-26T14:07:20.566Z,1.85
2022-12-26T14:10:05.095Z,2.30
2022-12-26T14:12:40.471Z,2.38
2022-12-26T14:15:21.847Z,1.60
2022-12-26T14:18:09.533Z,1.60
2022-12-26T14:20:49.465Z,3.15
2022-12-26T14:23:37.763Z,20.83
2022-12-26T14:26:31.598Z,19.70
2022-12-26T14:29:22.341Z,6.75
2022-12-26T14:32:07.246Z,3.20
2022-12-26T14:35:01.740Z,4.70
2022-12-26T14:37:44.284Z,5.25
2022-12-26T14:40:22.992Z,3.58
2022-12-26T14:43:10.547Z,9.90
2022-12-26T14:45:38.943Z,7.30
2022-12-26T14:48:17.903Z,2.90
2022-12-26T14:50:49.293Z,2.38
2022-12-26T14:53:24.971Z,3.20
2022-12-26T14:56:23.407Z,3.90
2022-12-26T14:58:51.748Z,2.35
2022-12-26T15:01:24.403Z,4.32
2022-12-26T15:03:50.784Z,1.85
2022-12-26T15:06:20.198Z,1.83
2022-12-26T15:09:08.475Z,2.50
2022-12-26T15:11:49.812Z,3.65
2022-12-26T15:14:57.592Z,5.68
2022-12-26T15:17:52.568Z,3.10
2022-12-26T15:20:43.257Z,2.65
2022-12-26T15:23:27.560Z,3.13
2022-12-26T15:26:31.541Z,5.60
2022-12-26T15:29:19.593Z,4.30
2022-12-26T15:31:52.013Z,3.53
2022-12-26T15:34:41.948Z,3.50
2022-12-26T15:37:30.786Z,3.20
2022-12-26T15:40:12.021Z,3.25
2022-12-26T15:43:01.162Z,5.50
2022-12-26T15:45:46.476Z,3.03
2022-12-26T15:48:34.559Z,3.17
2022-12-26T15:51:22.372Z,3.25
2022-12-26T15:54:00.999Z,4.63
2022-12-26T15:56:45.601Z,3.55
2022-12-26T15:59:12.102Z,2.40
2022-12-26T16:01:46.505Z,5.03
2022-12-26T16:04:21.973Z,3.25
2022-12-26T16:07:08.970Z,1.67
2022-12-26T16:09:45.148Z,2.53
2022-12-26T16:12:30.150Z,1.95
2022-12-26T16:15:11.608Z,1.00
2022-12-26T16:17:39.741Z,1.63
2022-12-26T16:20:24.326Z,2.00
2022-12-26T16:22:50.753Z,2.00
2022-12-26T16:25:21.711Z,1.30
2022-12-26T16:27:51.424Z,1.40
2022-12-26T16:30:21.916Z,1.65
2022-12-26T16:32:49.636Z,1.23
2022-12-26T16:35:26.740Z,1.60
2022-12-26T16:37:56.337Z,0.98
2022-12-26T16:40:31.175Z,1.20
2022-12-26T16:43:17.518Z,1.60
2022-12-26T16:45:52.762Z,2.78
2022-12-26T16:48:21.875Z,1.17
2022-12-26T16:50:52.401Z,1.20
2022-12-26T16:53:24.602Z,1.25
2022-12-26T16:56:14.977Z,3.60
2022-12-26T16:58:41.492Z,2.08
2022-12-26T17:01:12.370Z,2.20
2022-12-26T17:06:15.414Z,2.42
2022-12-26T17:08:48.738Z,3.28
2022-12-26T17:11:15.861Z,6.03
2022-12-26T17:13:49.863Z,3.50
2022-12-26T17:16:16.369Z,1.83
2022-12-26T17:18:49.921Z,2.35
2022-12-26T17:21:27.185Z,1.88
2022-12-26T17:24:19.773Z,1.40
2022-12-26T17:26:51.516Z,1.75
2022-12-26T17:29:45.978Z,1.27
2022-12-26T17:32:15.954Z,1.38
2022-12-26T17:34:42.671Z,1.17
2022-12-26T17:37:19.947Z,2.05
2022-12-26T17:40:00.896Z,3.95
2022-12-26T17:42:29.367Z,3.08
2022-12-26T17:44:55.772Z,1.50
2022-12-26T17:47:28.250Z,2.08
2022-12-26T17:49:55.849Z,0.80
2022-12-26T17:52:27.025Z,1.67
2022-12-26T17:54:53.847Z,1.73
2022-12-26T17:57:23.686Z,2.05
2022-12-26T17:59:52.180Z,1.25
2022-12-26T18:02:19.771Z,1.65
2022-12-26T18:04:47.341Z,1.75
2022-12-26T18:07:19.371Z,1.60
2022-12-26T18:09:46.512Z,3.42
2022-12-26T18:12:14.923Z,3.42
2022-12-26T18:14:41.497Z,7.28
2022-12-26T18:17:11.129Z,8.57
2022-12-26T18:19:37.471Z,6.47
2022-12-26T18:22:12.840Z,6.68
2022-12-26T18:24:39.158Z,3.90
2022-12-26T18:27:05.741Z,2.95
2022-12-26T18:29:32.088Z,3.30
2022-12-26T18:31:58.609Z,4.78
2022-12-26T18:34:25.309Z,3.35
2022-12-26T18:36:52.034Z,2.88
2022-12-26T18:39:18.656Z,2.70
2022-12-26T18:41:45.586Z,2.78
2022-12-26T18:44:12.085Z,3.28
2022-12-26T18:46:38.451Z,3.13
2022-12-26T18:49:04.850Z,3.33
2022-12-26T18:51:31.251Z,1.67
2022-12-26T18:53:57.794Z,4.28
2022-12-26T18:56:24.108Z,1.70
2022-12-26T18:58:57.564Z,2.25
2022-12-26T19:01:24.911Z,1.25
2022-12-26T19:03:51.408Z,2.67
2022-12-26T19:06:26.820Z,2.17
2022-12-26T19:08:53.453Z,0.80
2022-12-26T19:11:20.194Z,3.28
2022-12-26T19:13:47.059Z,1.60
2022-12-26T19:16:13.937Z,0.57
2022-12-26T19:18:40.490Z,1.17
2022-12-26T19:21:12.346Z,2.35
2022-12-26T19:23:39.229Z,0.80
2022-12-26T19:26:10.529Z,2.65
2022-12-26T19:28:36.929Z,1.60
2022-12-26T19:31:11.064Z,2.05
2022-12-26T19:33:37.769Z,1.95
2022-12-26T19:36:05.653Z,2.15
2022-12-26T19:38:32.274Z,1.95
2022-12-26T19:41:07.363Z,1.42
2022-12-26T19:43:33.833Z,2.95
2022-12-26T19:46:05.638Z,2.78
2022-12-26T19:48:36.221Z,1.08
2022-12-26T19:51:07.994Z,2.80
2022-12-26T19:53:35.829Z,1.35
2022-12-26T19:56:17.182Z,1.48
2022-12-26T19:58:44.786Z,2.25
2022-12-26T20:01:18.104Z,2.20
2022-12-26T20:03:45.312Z,1.20
2022-12-26T20:06:14.167Z,1.73
2022-12-26T20:08:41.714Z,1.63
2022-12-26T20:11:11.209Z,2.13
2022-12-26T20:13:37.748Z,1.55
2022-12-26T20:16:06.385Z,2.70
2022-12-26T20:18:35.191Z,2.75
2022-12-26T20:21:02.038Z,3.53
2022-12-26T20:23:28.837Z,2.20
2022-12-26T20:25:58.630Z,2.20
2022-12-26T20:28:25.436Z,3.72
2022-12-26T20:31:19.811Z,5.68
2022-12-26T20:33:49.480Z,5.22
2022-12-26T20:36:18.985Z,2.47
2022-12-26T20:38:46.282Z,3.80
2022-12-26T20:41:13.077Z,3.50
2022-12-26T20:43:40.135Z,2.42
2022-12-26T20:46:09.082Z,2.33
2022-12-26T20:48:36.327Z,4.53
2022-12-26T20:51:06.394Z,3.97
2022-12-26T20:53:33.660Z,2.47
2022-12-26T20:56:00.365Z,1.90
2022-12-26T20:58:30.412Z,1.50
2022-12-26T21:00:58.470Z,2.20
2022-12-26T21:03:26.281Z,2.65
2022-12-26T21:05:53.787Z,1.20
2022-12-26T21:08:20.754Z,1.10
2022-12-26T21:10:47.158Z,1.58
2022-12-26T21:13:13.819Z,1.35
2022-12-26T21:15:40.521Z,4.32
2022-12-26T21:18:06.826Z,5.03
2022-12-26T21:20:36.286Z,1.05
2022-12-26T21:23:02.698Z,2.15
2022-12-26T21:25:29.105Z,2.88
2022-12-26T21:27:59.090Z,3.05
2022-12-26T21:30:25.833Z,4.03
2022-12-26T21:32:52.204Z,0.80
2022-12-26T21:35:18.785Z,4.07
2022-12-26T21:37:45.177Z,1.67
2022-12-26T21:40:12.154Z,2.50
2022-12-26T21:42:38.525Z,4.32
2022-12-26T21:45:05.208Z,3.30
2022-12-26T21:47:31.624Z,2.15
2022-12-26T21:49:57.975Z,1.45
2022-12-26T21:52:24.377Z,2.90
2022-12-26T21:54:50.767Z,1.73
2022-12-26T21:57:18.341Z,2.60
2022-12-26T21:59:45.542Z,3.67
2022-12-26T22:02:13.706Z,1.77
2022-12-26T22:04:40.183Z,1.35
2022-12-26T22:07:06.529Z,1.83
2022-12-26T22:09:33.108Z,1.63
2022-12-26T22:11:59.756Z,2.15
2022-12-26T22:14:26.165Z,1.83
2022-12-26T22:16:53.929Z,4.28
2022-12-26T22:19:20.920Z,4.30
2022-12-26T22:21:47.471Z,3.45
2022-12-26T22:24:13.963Z,6.03
2022-12-26T22:26:40.334Z,1.63
2022-12-26T22:29:06.690Z,0.95
2022-12-26T22:31:35.285Z,2.67
2022-12-26T22:34:10.868Z,3.95
2022-12-26T22:36:37.263Z,0.77
2022-12-26T22:39:04.243Z,3.42
2022-12-26T22:41:30.789Z,4.65
2022-12-26T22:43:57.555Z,3.22
2022-12-26T22:46:24.110Z,3.17
2022-12-26T22:48:50.940Z,1.67
2022-12-26T22:51:21.929Z,2.58
2022-12-26T22:53:49.005Z,2.55
2022-12-26T22:56:15.395Z,3.47
2022-12-26T22:58:41.977Z,2.53
2022-12-26T23:01:16.916Z,2.25
2022-12-26T23:03:43.604Z,3.65
2022-12-26T23:06:19.986Z,1.40
2022-12-26T23:08:46.999Z,4.20
2022-12-26T23:11:13.666Z,3.10
2022-12-26T23:13:40.396Z,3.85
2022-12-26T23:16:33.813Z,3.30
2022-12-26T23:19:05.318Z,2.45
2022-12-26T23:21:34.666Z,5.88
2022-12-26T23:24:01.104Z,2.63
2022-12-26T23:26:27.480Z,1.02
2022-12-26T23:28:54.001Z,3.60
2022-12-26T23:31:20.728Z,2.10
2022-12-26T23:33:47.177Z,3.80
2022-12-26T23:36:13.762Z,2.90
2022-12-26T23:38:40.105Z,2.83
2022-12-26T23:41:06.556Z,4.03
2022-12-26T23:43:32.941Z,4.05
2022-12-26T23:46:00.537Z,1.45
2022-12-26T23:48:27.065Z,3.58
2022-12-26T23:51:07.420Z,2.30
2022-12-26T23:53:34.307Z,3.03
2022-12-26T23:56:00.652Z,2.40
2022-12-26T23:58:27.340Z,4.35
